Notre-Dame-Du-Nord, Canada
Current Conditions -  °F | °C
As of 7:00 PM on Sunday 21 Dec 2014 (Local Time) from CYXR Reporting Station
Overcast Overcast  
Wind Chill:   Ceiling: 2800
Heat Index: 16°   Visibility: 9mi
Dew Point: 14°   Wind: 6mph
Humidity: 93%   Direction: 140°SE
Pressure: 30.26"   Gusts: NA
Location:  47.6°N, 79.65°W
Report Text: CYXR 220000Z AUTO 14005KT 9SM OVC028 M09/M10 A3026 RMK SLP269
Loading
Personal Weather Stations






























Interactive Weather Map New forecast layout! Learn more

10-Day Weather Forecast

Advertisements
Track Severe Weather on mobile